Time;durP1;ratioP1;P1;durP2;ratioP2;P2;SDS_P1;SDS_P2;PMS_P1;PMS_P2;Temp;Humidity;BMP_temperature;BMP_pressure;BME280_temperature;BME280_humidity;BME280_pressure;Samples;Min_cycle;Max_cycle;Signal;HPM_P1;HPM_P2
2022/04/07 00:00:29;;;;;;;7.20;3.57;;;11.20;99.90;;;;;;4911993;29;20903;-71
2022/04/07 00:02:55;;;;;;;4.17;3.30;;;11.20;99.90;;;;;;4901473;29;20453;-71
2022/04/07 00:05:21;;;;;;;2.83;2.50;;;11.20;99.90;;;;;;4914295;29;20173;-71
2022/04/07 00:07:49;;;;;;;4.40;2.77;;;11.20;99.90;;;;;;4896292;29;21028;-71
2022/04/07 00:10:18;;;;;;;4.20;2.33;;;11.20;99.90;;;;;;4902290;29;20943;-71
2022/04/07 00:12:44;;;;;;;4.40;3.30;;;11.20;99.90;;;;;;4889499;29;20485;-71
2022/04/07 00:15:14;;;;;;;3.10;2.80;;;11.20;99.90;;;;;;4914213;29;20428;-71
2022/04/07 00:17:43;;;;;;;3.10;2.30;;;11.20;99.90;;;;;;4928559;29;20504;-72
2022/04/07 00:20:09;;;;;;;3.27;2.70;;;11.10;99.90;;;;;;4892307;29;20511;-71
2022/04/07 00:22:37;;;;;;;2.40;1.80;;;11.20;99.90;;;;;;4896944;29;20418;-72
2022/04/07 00:25:09;;;;;;;2.67;1.90;;;11.20;99.90;;;;;;4897464;29;20979;-72
2022/04/07 00:27:36;;;;;;;5.13;2.40;;;11.10;99.90;;;;;;4898281;29;20506;-72
2022/04/07 00:30:05;;;;;;;2.10;1.80;;;11.10;99.90;;;;;;4898162;29;20466;-72
2022/04/07 00:32:31;;;;;;;3.90;1.93;;;11.10;99.90;;;;;;4898265;29;20523;-72
2022/04/07 00:34:57;;;;;;;4.00;2.50;;;11.10;99.90;;;;;;4897499;29;20435;-72
2022/04/07 00:37:24;;;;;;;3.27;2.53;;;11.10;99.90;;;;;;4898101;29;20678;-72
2022/04/07 00:39:53;;;;;;;2.87;2.03;;;11.10;99.90;;;;;;4912735;29;20458;-72
2022/04/07 00:42:21;;;;;;;2.30;1.87;;;11.10;99.90;;;;;;4897087;29;20446;-72
2022/04/07 00:44:47;;;;;;;2.03;1.70;;;11.10;99.90;;;;;;4898310;29;20405;-72
2022/04/07 00:47:22;;;;;;;2.97;1.90;;;11.10;99.90;;;;;;4896998;29;20445;-72
2022/04/07 00:49:48;;;;;;;2.40;1.90;;;11.10;99.90;;;;;;4897039;29;20496;-72
2022/04/07 00:52:15;;;;;;;3.10;1.90;;;11.10;99.90;;;;;;4913470;29;20425;-72
2022/04/07 00:54:44;;;;;;;3.20;2.00;;;11.10;99.90;;;;;;4921240;29;20447;-72
2022/04/07 00:57:15;;;;;;;2.60;2.13;;;11.10;99.90;;;;;;4906791;29;20515;-72
2022/04/07 00:59:45;;;;;;;3.87;2.13;;;11.10;99.90;;;;;;4906540;29;20454;-72
2022/04/07 01:02:11;;;;;;;4.10;2.07;;;11.10;99.90;;;;;;4922200;29;20420;-72
2022/04/07 01:04:37;;;;;;;3.50;1.70;;;11.10;99.90;;;;;;4922408;29;20417;-72
2022/04/07 01:07:09;;;;;;;2.67;1.90;;;11.10;99.90;;;;;;4922022;29;20438;-72
2022/04/07 01:09:38;;;;;;;2.97;2.13;;;11.10;99.90;;;;;;4922915;29;20458;-72
2022/04/07 01:12:08;;;;;;;2.20;2.00;;;11.10;99.90;;;;;;4922393;29;21010;-72
2022/04/07 01:14:55;;;;;;;2.47;1.70;;;11.10;99.90;;;;;;4921984;29;20450;-72
2022/04/07 01:17:23;;;;;;;3.53;2.13;;;11.10;99.90;;;;;;4922969;29;20838;-72
2022/04/07 01:19:53;;;;;;;3.40;1.90;;;11.10;99.90;;;;;;4922978;29;20467;-72
2022/04/07 01:22:20;;;;;;;3.53;1.60;;;11.10;99.90;;;;;;4918428;29;20422;-72
2022/04/07 01:24:53;;;;;;;2.90;1.57;;;11.00;99.90;;;;;;4918837;29;20897;-72
2022/04/07 01:27:24;;;;;;;2.50;1.63;;;11.10;99.90;;;;;;4903969;29;20523;-72
2022/04/07 01:29:53;;;;;;;2.40;1.50;;;11.00;99.90;;;;;;4903054;29;21023;-72
2022/04/07 01:32:40;;;;;;;2.00;1.63;;;11.00;99.90;;;;;;4902959;29;20782;-72
2022/04/07 01:35:09;;;;;;;2.90;2.00;;;11.00;99.90;;;;;;4918552;29;20462;-72
2022/04/07 01:37:39;;;;;;;2.03;1.93;;;11.00;99.90;;;;;;4903058;29;20544;-72
2022/04/07 01:40:09;;;;;;;4.83;2.20;;;11.00;99.90;;;;;;4902840;29;20470;-72
2022/04/07 01:42:38;;;;;;;1.93;1.43;;;11.00;99.90;;;;;;4903084;29;20751;-72
2022/04/07 01:45:06;;;;;;;6.97;1.70;;;11.00;99.90;;;;;;4903794;29;20813;-72
2022/04/07 01:47:39;;;;;;;3.80;1.40;;;11.00;99.90;;;;;;4903835;29;20448;-72
2022/04/07 01:50:08;;;;;;;3.27;1.50;;;11.00;99.90;;;;;;4902892;29;20413;-72
2022/04/07 01:52:39;;;;;;;3.47;1.57;;;11.00;99.90;;;;;;4903995;29;20928;-72
2022/04/07 01:55:08;;;;;;;3.53;1.90;;;11.00;99.90;;;;;;4903767;29;20531;-72
2022/04/07 01:57:35;;;;;;;2.50;1.50;;;11.00;99.90;;;;;;4918322;29;20477;-72
2022/04/07 02:00:04;;;;;;;5.23;1.50;;;11.00;99.90;;;;;;4902982;29;20454;-72
2022/04/07 02:02:38;;;;;;;2.57;1.60;;;11.10;99.90;;;;;;4903982;29;20442;-72
2022/04/07 02:05:08;;;;;;;3.47;2.73;;;11.00;99.90;;;;;;4900472;29;20932;-72
2022/04/07 02:07:38;;;;;;;4.07;1.40;;;11.00;99.90;;;;;;4899672;29;20456;-72
2022/04/07 02:10:07;;;;;;;2.90;1.50;;;11.00;99.90;;;;;;4900846;29;20450;-72
2022/04/07 02:12:37;;;;;;;2.83;1.30;;;11.00;99.90;;;;;;4884202;29;20850;-72
2022/04/07 02:15:05;;;;;;;3.83;1.47;;;11.00;99.90;;;;;;4915184;29;20957;-72
2022/04/07 02:17:31;;;;;;;3.10;1.80;;;11.00;99.90;;;;;;4900642;29;20853;-72
2022/04/07 02:19:59;;;;;;;2.13;1.60;;;11.00;99.90;;;;;;4899625;29;20846;-72
2022/04/07 02:22:28;;;;;;;2.33;1.60;;;11.00;99.90;;;;;;4899374;29;20448;-72
2022/04/07 02:24:56;;;;;;;3.27;1.70;;;11.00;99.90;;;;;;4899396;29;20419;-72
2022/04/07 02:27:22;;;;;;;2.10;1.53;;;11.00;99.90;;;;;;4899387;29;20456;-72
2022/04/07 02:29:48;;;;;;;2.30;1.90;;;11.00;99.90;;;;;;4899440;29;20424;-72
2022/04/07 02:32:15;;;;;;;3.30;1.70;;;11.00;99.90;;;;;;4899463;29;20478;-72
2022/04/07 02:34:41;;;;;;;4.23;2.00;;;11.00;99.90;;;;;;4899273;29;20436;-72
2022/04/07 02:37:08;;;;;;;4.10;1.97;;;11.00;99.90;;;;;;4911235;29;20483;-75
2022/04/07 02:39:36;;;;;;;4.13;1.87;;;11.00;99.90;;;;;;4908403;29;20981;-75
2022/04/07 02:42:03;;;;;;;2.87;2.03;;;11.00;99.90;;;;;;4910302;29;20511;-74
2022/04/07 02:44:29;;;;;;;3.97;2.50;;;11.00;99.90;;;;;;4909901;29;20463;-75
2022/04/07 02:46:55;;;;;;;3.13;1.77;;;11.00;99.90;;;;;;4906229;29;20947;-74
2022/04/07 02:49:21;;;;;;;4.37;1.93;;;11.00;99.90;;;;;;4900677;29;20430;-75
2022/04/07 02:51:47;;;;;;;3.50;2.00;;;11.00;99.90;;;;;;4908483;29;20982;-75
2022/04/07 02:54:13;;;;;;;2.27;1.60;;;11.00;99.90;;;;;;4890726;29;20478;-74
2022/04/07 02:56:39;;;;;;;2.47;1.90;;;11.00;99.90;;;;;;4907678;29;20979;-75
2022/04/07 02:59:07;;;;;;;2.20;1.90;;;11.00;99.90;;;;;;4909034;29;20510;-75
2022/04/07 03:01:38;;;;;;;3.20;2.17;;;11.00;99.90;;;;;;4899670;29;20440;-75
2022/04/07 03:04:06;;;;;;;4.73;2.13;;;11.00;99.90;;;;;;4901353;29;20478;-73
2022/04/07 03:06:34;;;;;;;2.70;1.80;;;11.00;99.90;;;;;;4905632;29;20474;-75
2022/04/07 03:09:05;;;;;;;2.93;1.87;;;11.00;99.90;;;;;;4903095;29;20947;-74
2022/04/07 03:11:33;;;;;;;2.47;2.03;;;11.00;99.90;;;;;;4900823;29;20967;-76
2022/04/07 03:14:04;;;;;;;2.03;1.43;;;11.00;99.90;;;;;;4896137;29;20459;-75
2022/04/07 03:16:32;;;;;;;3.67;1.73;;;11.00;99.90;;;;;;4907040;29;20447;-76
2022/04/07 03:18:58;;;;;;;2.77;1.60;;;11.00;99.90;;;;;;4911318;29;20495;-75
2022/04/07 03:21:28;;;;;;;2.03;1.63;;;11.00;99.90;;;;;;4893107;29;20499;-75
2022/04/07 03:23:54;;;;;;;2.60;1.80;;;11.00;99.90;;;;;;4923560;29;20862;-75
2022/04/07 03:26:22;;;;;;;2.47;1.70;;;11.00;99.90;;;;;;4902133;29;20451;-75
2022/04/07 03:28:49;;;;;;;4.03;2.27;;;11.00;99.90;;;;;;4883369;29;20463;-74
2022/04/07 03:31:15;;;;;;;3.57;1.40;;;11.00;99.90;;;;;;4890166;29;21024;-74
2022/04/07 03:33:41;;;;;;;2.60;1.73;;;11.00;99.90;;;;;;4903799;29;20434;-74
2022/04/07 03:36:07;;;;;;;1.40;1.30;;;11.00;99.90;;;;;;4910396;29;20560;-74
2022/04/07 03:38:33;;;;;;;2.17;1.97;;;11.00;99.90;;;;;;4900957;29;20442;-74
2022/04/07 03:41:05;;;;;;;3.00;1.80;;;11.00;99.90;;;;;;4907270;29;20472;-74
2022/04/07 03:43:33;;;;;;;1.47;1.20;;;11.00;99.90;;;;;;4911252;29;20413;-74
2022/04/07 03:46:02;;;;;;;3.60;1.63;;;11.00;99.90;;;;;;4895719;29;20507;-74
2022/04/07 03:48:28;;;;;;;3.47;1.60;;;11.00;99.90;;;;;;4904421;29;21007;-74
2022/04/07 03:50:56;;;;;;;5.13;1.20;;;11.00;99.90;;;;;;4906492;29;20539;-74
2022/04/07 03:53:22;;;;;;;1.97;1.40;;;10.90;99.90;;;;;;4896345;29;20561;-74
2022/04/07 03:55:52;;;;;;;3.60;1.50;;;10.90;99.90;;;;;;4903622;29;20823;-75
2022/04/07 03:58:18;;;;;;;2.10;1.37;;;10.90;99.90;;;;;;4909238;29;20995;-74
2022/04/07 04:00:47;;;;;;;3.90;1.50;;;10.90;99.90;;;;;;4903941;29;20891;-74
2022/04/07 04:03:13;;;;;;;5.33;1.80;;;10.90;99.90;;;;;;4912923;29;20433;-74
2022/04/07 04:05:39;;;;;;;1.97;1.30;;;10.90;99.90;;;;;;4910908;29;20526;-74
2022/04/07 04:08:05;;;;;;;3.63;1.53;;;10.90;99.90;;;;;;4888020;29;20639;-72
2022/04/07 04:10:31;;;;;;;3.57;1.70;;;11.00;99.90;;;;;;4927498;29;20436;-74
2022/04/07 04:12:57;;;;;;;2.80;1.57;;;11.00;99.90;;;;;;4902358;29;20462;-75
2022/04/07 04:15:23;;;;;;;1.73;1.50;;;10.90;99.90;;;;;;4927624;29;20470;-74
2022/04/07 04:17:49;;;;;;;1.30;1.20;;;11.00;99.90;;;;;;4911691;29;20472;-74
2022/04/07 04:20:15;;;;;;;2.93;1.40;;;10.90;99.90;;;;;;4915017;29;21138;-74
2022/04/07 04:22:43;;;;;;;1.90;1.40;;;10.90;99.90;;;;;;4894008;29;20429;-74
2022/04/07 04:25:12;;;;;;;3.20;1.70;;;10.90;99.90;;;;;;4926872;29;20466;-75
2022/04/07 04:27:41;;;;;;;3.17;1.67;;;11.00;99.90;;;;;;4913206;29;20448;-74
2022/04/07 04:30:08;;;;;;;6.07;1.40;;;11.00;99.90;;;;;;4894213;29;20797;-74
2022/04/07 04:32:36;;;;;;;2.80;1.40;;;11.00;99.90;;;;;;4899032;29;20458;-75
2022/04/07 04:35:03;;;;;;;3.47;1.83;;;11.00;99.90;;;;;;4924124;29;21181;-75
2022/04/07 04:37:29;;;;;;;2.80;1.50;;;11.00;99.90;;;;;;4911523;29;21014;-74
2022/04/07 04:39:59;;;;;;;2.33;1.57;;;10.90;99.90;;;;;;4896889;29;20466;-75
2022/04/07 04:42:25;;;;;;;2.30;1.43;;;10.90;99.90;;;;;;4914562;29;20438;-74
2022/04/07 04:44:54;;;;;;;4.27;1.50;;;11.00;99.90;;;;;;4915976;29;20925;-75
2022/04/07 04:47:22;;;;;;;3.13;1.97;;;11.00;99.90;;;;;;4930126;29;20523;-75
2022/04/07 04:49:51;;;;;;;2.50;1.47;;;10.90;99.90;;;;;;4897635;29;20514;-71
2022/04/07 04:52:17;;;;;;;1.80;1.57;;;11.00;99.90;;;;;;4908397;29;20439;-74
2022/04/07 04:54:45;;;;;;;4.87;1.90;;;10.90;99.90;;;;;;4894367;29;20450;-74
2022/04/07 04:57:13;;;;;;;4.53;2.00;;;10.90;99.90;;;;;;4929953;29;21214;-74
2022/04/07 04:59:39;;;;;;;3.03;1.63;;;10.90;99.90;;;;;;4904993;29;20865;-69
2022/04/07 05:02:05;;;;;;;2.83;1.77;;;10.90;99.90;;;;;;4911237;29;20440;-75
2022/04/07 05:04:36;;;;;;;2.63;1.30;;;10.90;99.90;;;;;;4910444;29;20523;-75
2022/04/07 05:07:05;;;;;;;2.10;1.70;;;10.90;99.90;;;;;;4914116;29;20775;-74
2022/04/07 05:09:31;;;;;;;2.50;1.77;;;10.90;99.90;;;;;;4913599;29;20529;-74
2022/04/07 05:11:57;;;;;;;2.50;1.70;;;10.90;99.90;;;;;;4914488;29;20418;-76
2022/04/07 05:14:25;;;;;;;2.60;1.80;;;10.90;99.90;;;;;;4916631;29;20444;-74
2022/04/07 05:16:53;;;;;;;1.60;1.50;;;10.90;99.90;;;;;;4937450;29;20209;-75
2022/04/07 05:19:19;;;;;;;1.77;1.40;;;11.00;99.90;;;;;;4902109;29;20442;-75
2022/04/07 05:21:50;;;;;;;2.60;1.47;;;10.90;99.90;;;;;;4892865;29;20531;-74
2022/04/07 05:24:21;;;;;;;2.30;1.50;;;10.90;99.90;;;;;;4913541;29;20435;-75
2022/04/07 05:26:47;;;;;;;5.23;1.50;;;10.90;99.90;;;;;;4906436;29;20448;-74
2022/04/07 05:29:15;;;;;;;1.80;1.40;;;10.90;99.90;;;;;;4895582;29;20412;-75
2022/04/07 05:31:41;;;;;;;4.17;1.80;;;10.90;99.90;;;;;;4901443;29;20977;-74
2022/04/07 05:34:09;;;;;;;3.87;1.80;;;10.90;99.90;;;;;;4898031;29;20486;-74
2022/04/07 05:36:35;;;;;;;2.33;1.60;;;10.90;99.90;;;;;;4914006;29;20474;-75
2022/04/07 05:39:07;;;;;;;1.97;1.40;;;10.90;99.90;;;;;;4913820;29;20424;-74
2022/04/07 05:41:33;;;;;;;3.57;1.60;;;10.90;99.90;;;;;;4911214;29;20969;-74
2022/04/07 05:44:01;;;;;;;4.50;1.83;;;10.90;99.90;;;;;;4900299;29;20473;-74
2022/04/07 05:46:30;;;;;;;1.73;1.33;;;10.90;99.90;;;;;;4917784;29;20899;-74
2022/04/07 05:48:58;;;;;;;2.90;1.30;;;10.90;99.90;;;;;;4916155;29;20443;-75
2022/04/07 05:51:25;;;;;;;1.47;1.30;;;10.90;99.90;;;;;;4914638;29;20509;-74
2022/04/07 05:53:50;;;;;;;3.43;1.33;;;10.90;99.90;;;;;;4899104;29;20433;-75
2022/04/07 05:56:18;;;;;;;1.77;1.17;;;10.90;99.90;;;;;;4914986;29;20474;-74
2022/04/07 05:58:44;;;;;;;2.53;1.63;;;10.90;99.90;;;;;;4916385;29;20167;-75
2022/04/07 06:01:10;;;;;;;1.30;1.17;;;10.90;99.90;;;;;;4915609;29;20993;-74
2022/04/07 06:03:40;;;;;;;2.13;1.40;;;10.90;99.90;;;;;;4901123;29;21953;-74
2022/04/07 06:06:13;;;;;;;1.47;1.03;;;10.90;99.90;;;;;;4910141;29;20494;-75
2022/04/07 06:08:39;;;;;;;1.60;1.27;;;10.90;99.90;;;;;;4898705;29;21043;-75
2022/04/07 06:11:05;;;;;;;2.20;1.23;;;10.90;99.90;;;;;;4900299;29;20471;-75
2022/04/07 06:13:31;;;;;;;1.93;1.10;;;10.90;99.90;;;;;;4928288;29;20940;-75
2022/04/07 06:15:57;;;;;;;3.73;1.30;;;10.90;99.90;;;;;;4899236;29;20211;-75
2022/04/07 06:18:22;;;;;;;2.37;1.30;;;10.90;99.90;;;;;;4903810;29;20520;-77
2022/04/07 06:20:48;;;;;;;2.40;1.20;;;10.90;99.90;;;;;;4906721;29;20837;-78
2022/04/07 06:23:15;;;;;;;2.20;1.10;;;10.90;99.90;;;;;;4918567;29;20478;-78
2022/04/07 06:25:41;;;;;;;4.07;1.30;;;10.90;99.90;;;;;;4918536;29;20419;-79
2022/04/07 06:28:07;;;;;;;3.73;1.40;;;10.90;99.90;;;;;;4902596;29;20435;-78
2022/04/07 06:30:40;;;;;;;1.60;1.50;;;10.90;99.90;;;;;;4902165;29;20469;-78
2022/04/07 06:33:08;;;;;;;4.47;1.23;;;10.90;99.90;;;;;;4901911;29;20424;-78
2022/04/07 06:35:34;;;;;;;2.77;1.40;;;10.90;99.90;;;;;;4916522;29;20407;-78
2022/04/07 06:38:03;;;;;;;2.27;1.30;;;10.90;99.90;;;;;;4916971;29;20422;-78
2022/04/07 06:40:31;;;;;;;1.27;1.10;;;10.90;99.90;;;;;;4900845;29;20516;-79
2022/04/07 06:43:02;;;;;;;1.20;1.10;;;10.90;99.90;;;;;;4902790;29;20416;-79
2022/04/07 06:45:30;;;;;;;2.87;1.30;;;10.90;99.90;;;;;;4935041;29;20489;-79
2022/04/07 06:47:59;;;;;;;1.63;1.17;;;10.90;99.90;;;;;;4920020;29;20441;-79
2022/04/07 06:50:25;;;;;;;5.90;1.30;;;10.90;99.90;;;;;;4920194;29;20422;-79
2022/04/07 06:52:55;;;;;;;4.40;1.20;;;10.90;99.90;;;;;;4934763;29;20473;-78
2022/04/07 06:55:24;;;;;;;2.23;1.20;;;10.90;99.90;;;;;;4935639;29;20438;-78
2022/04/07 06:58:01;;;;;;;1.77;0.97;;;10.90;99.90;;;;;;4888698;29;20438;-78
2022/04/07 07:00:34;;;;;;;1.83;1.20;;;10.90;99.90;;;;;;4921259;29;20543;-78
2022/04/07 07:03:03;;;;;;;3.83;1.00;;;10.90;99.90;;;;;;4935822;29;20423;-78
2022/04/07 07:05:32;;;;;;;1.90;1.20;;;10.90;99.90;;;;;;4919566;29;20453;-78
2022/04/07 07:08:33;;;;;;;1.73;1.17;;;10.90;99.90;;;;;;4918710;29;20459;-78
2022/04/07 07:10:59;;;;;;;1.20;0.90;;;10.90;99.90;;;;;;4903904;29;20441;-79
2022/04/07 07:13:25;;;;;;;2.03;1.07;;;10.90;99.90;;;;;;4919990;29;20421;-78
2022/04/07 07:15:51;;;;;;;1.47;1.10;;;10.90;99.90;;;;;;4920091;29;20454;-77
2022/04/07 07:18:17;;;;;;;1.83;1.00;;;10.90;99.90;;;;;;4920254;29;20429;-77
2022/04/07 07:20:46;;;;;;;4.07;1.07;;;10.90;99.90;;;;;;4919423;29;20589;-78
2022/04/07 07:23:15;;;;;;;1.67;1.13;;;10.90;99.90;;;;;;4903816;29;20457;-78
2022/04/07 07:25:41;;;;;;;2.67;0.97;;;10.90;99.90;;;;;;4920838;29;20414;-78
2022/04/07 07:28:12;;;;;;;2.77;1.00;;;10.90;99.90;;;;;;4889015;29;20461;-78
2022/04/07 07:30:38;;;;;;;2.37;1.10;;;10.90;99.90;;;;;;4920358;29;20540;-78
2022/04/07 07:33:07;;;;;;;2.50;1.00;;;10.90;99.90;;;;;;4919155;29;20428;-78
2022/04/07 07:35:33;;;;;;;1.77;1.30;;;10.90;99.90;;;;;;4918905;29;20451;-78
2022/04/07 07:38:03;;;;;;;2.70;1.10;;;10.90;99.90;;;;;;4934516;29;20422;-78
2022/04/07 07:40:31;;;;;;;1.40;1.10;;;10.90;99.90;;;;;;4919853;29;20485;-78
2022/04/07 07:43:00;;;;;;;1.20;0.80;;;10.90;99.90;;;;;;4919571;29;20446;-78
2022/04/07 07:45:34;;;;;;;2.60;0.87;;;10.90;99.90;;;;;;4933506;29;20766;-78
2022/04/07 07:48:00;;;;;;;1.57;0.90;;;10.90;99.90;;;;;;4918015;29;20922;-79
2022/04/07 07:50:26;;;;;;;1.10;1.00;;;10.90;99.90;;;;;;4919659;29;20423;-78
2022/04/07 07:52:52;;;;;;;1.00;0.70;;;10.90;99.90;;;;;;4902875;29;20480;-78
2022/04/07 07:55:23;;;;;;;2.90;0.87;;;10.90;99.90;;;;;;4917633;29;20577;-79
2022/04/07 07:57:52;;;;;;;3.33;1.20;;;10.90;99.90;;;;;;4917978;29;20449;-78
2022/04/07 08:00:24;;;;;;;1.80;1.00;;;10.90;99.90;;;;;;4919121;29;20473;-79
2022/04/07 08:02:50;;;;;;;1.30;0.93;;;10.90;99.90;;;;;;4917834;29;20426;-77
2022/04/07 08:05:16;;;;;;;1.20;0.77;;;10.90;99.90;;;;;;4918249;29;20776;-78
2022/04/07 08:07:47;;;;;;;2.40;0.83;;;10.90;99.90;;;;;;4902333;29;20506;-78
2022/04/07 08:10:13;;;;;;;1.17;0.77;;;10.90;99.90;;;;;;4917689;29;20441;-78
2022/04/07 08:12:42;;;;;;;1.23;0.80;;;10.90;99.90;;;;;;4933694;29;20793;-78
2022/04/07 08:15:10;;;;;;;0.77;0.50;;;10.90;99.90;;;;;;4919393;29;20431;-78
2022/04/07 08:17:40;;;;;;;2.13;0.73;;;10.90;99.90;;;;;;4919163;29;20450;-78
2022/04/07 08:20:09;;;;;;;1.30;0.67;;;10.90;99.90;;;;;;4918099;29;20463;-78
2022/04/07 08:22:40;;;;;;;0.80;0.53;;;10.90;99.90;;;;;;4917671;29;20457;-78
2022/04/07 08:25:08;;;;;;;5.97;0.80;;;11.00;99.90;;;;;;4919254;29;20514;-79
2022/04/07 08:27:34;;;;;;;1.00;0.70;;;11.00;99.90;;;;;;4933389;29;20466;-78
2022/04/07 08:30:00;;;;;;;1.87;0.70;;;11.00;99.90;;;;;;4933995;29;20446;-78
2022/04/07 08:32:31;;;;;;;1.00;0.60;;;11.00;99.90;;;;;;4917455;29;20425;-78
2022/04/07 08:34:58;;;;;;;0.83;0.60;;;11.00;99.90;;;;;;4919063;29;20411;-78
2022/04/07 08:37:26;;;;;;;1.23;0.80;;;11.00;99.90;;;;;;4933397;29;20466;-77
2022/04/07 08:39:57;;;;;;;1.83;0.60;;;11.00;99.90;;;;;;4917187;29;20489;-77
2022/04/07 08:42:23;;;;;;;0.90;0.70;;;11.00;99.90;;;;;;4884451;29;20452;-78
2022/04/07 08:44:52;;;;;;;0.70;0.60;;;11.00;99.90;;;;;;4917694;29;20821;-77
2022/04/07 08:47:20;;;;;;;1.30;0.80;;;11.00;99.90;;;;;;4917170;29;21019;-77
2022/04/07 08:49:48;;;;;;;1.07;0.57;;;11.00;99.90;;;;;;4917673;29;20489;-77
2022/04/07 08:52:15;;;;;;;1.00;0.63;;;11.00;99.90;;;;;;4916059;29;20438;-77
2022/04/07 08:54:44;;;;;;;0.70;0.60;;;11.00;99.90;;;;;;4917447;29;20458;-78
2022/04/07 08:57:13;;;;;;;1.73;0.60;;;11.10;99.90;;;;;;4917703;29;20451;-77
2022/04/07 08:59:39;;;;;;;3.33;0.53;;;11.10;99.90;;;;;;4900371;29;20974;-77
2022/04/07 09:02:12;;;;;;;0.90;0.57;;;11.10;99.90;;;;;;4932067;29;20432;-77
2022/04/07 09:04:40;;;;;;;6.97;2.50;;;11.10;99.90;;;;;;4913150;29;20516;-77
2022/04/07 09:07:13;;;;;;;2.03;0.70;;;11.10;99.90;;;;;;4898885;29;20456;-76
2022/04/07 09:09:43;;;;;;;0.67;0.53;;;11.10;99.90;;;;;;4924587;29;20476;-76
2022/04/07 09:12:23;;;;;;;1.10;0.50;;;11.10;99.90;;;;;;4914699;29;20447;-77
2022/04/07 09:14:55;;;;;;;1.53;0.50;;;11.10;99.90;;;;;;4914214;29;20476;-76
2022/04/07 09:17:26;;;;;;;1.07;0.70;;;11.10;99.90;;;;;;4892418;29;20478;-76
2022/04/07 09:19:53;;;;;;;1.10;0.50;;;11.10;99.90;;;;;;4914841;29;20471;-75
2022/04/07 09:22:30;;;;;;;0.73;0.57;;;11.20;99.90;;;;;;4895301;29;20443;-76
2022/04/07 09:25:07;;;;;;;1.10;0.70;;;11.20;99.90;;;;;;4898131;29;21034;-76
2022/04/07 09:27:33;;;;;;;0.83;0.50;;;11.20;99.90;;;;;;4915308;29;20460;-76
2022/04/07 09:30:00;;;;;;;1.77;0.80;;;11.20;99.90;;;;;;4899859;29;20857;-76
2022/04/07 09:32:27;;;;;;;2.03;0.80;;;11.20;99.90;;;;;;4895908;29;20453;-76
2022/04/07 09:34:58;;;;;;;0.90;0.60;;;11.20;99.90;;;;;;4914890;29;20489;-76
2022/04/07 09:37:27;;;;;;;1.83;0.60;;;11.20;99.90;;;;;;4912096;29;20466;-76
2022/04/07 09:40:09;;;;;;;2.03;0.83;;;11.20;99.90;;;;;;4909982;29;20472;-76
2022/04/07 09:42:36;;;;;;;3.07;0.80;;;11.20;99.90;;;;;;4910306;29;20431;-76
2022/04/07 09:45:07;;;;;;;2.60;0.80;;;11.20;99.90;;;;;;4913432;29;20531;-76
2022/04/07 09:47:49;;;;;;;2.00;0.67;;;11.20;99.90;;;;;;4898973;29;20457;-76
2022/04/07 09:50:31;;;;;;;1.10;0.70;;;11.20;99.90;;;;;;4916862;29;20466;-76
2022/04/07 09:53:05;;;;;;;2.23;0.80;;;11.10;99.90;;;;;;4905741;29;20442;-76
2022/04/07 09:58:24;;;;;;;1.30;0.80;;;11.10;99.90;;;;;;5029744;23;20528;-76
2022/04/07 10:00:53;;;;;;;1.30;0.80;;;11.10;99.90;;;;;;4942072;28;20544;-76
2022/04/07 10:03:20;;;;;;;6.93;0.90;;;11.10;99.90;;;;;;4951142;29;20472;-75
2022/04/07 10:05:50;;;;;;;4.53;0.80;;;11.10;99.90;;;;;;4953836;28;20441;-76
2022/04/07 10:08:17;;;;;;;1.27;0.80;;;11.10;99.90;;;;;;4946818;29;20495;-76
2022/04/07 10:10:43;;;;;;;1.23;0.60;;;11.10;99.90;;;;;;4920080;29;20449;-76
2022/04/07 10:13:10;;;;;;;1.20;0.90;;;11.10;99.90;;;;;;4949854;29;20486;-77
2022/04/07 10:15:37;;;;;;;1.33;0.83;;;11.10;99.90;;;;;;4924817;29;20850;-76
2022/04/07 10:18:17;;;;;;;3.53;0.97;;;11.10;99.90;;;;;;4918888;29;20437;-76
2022/04/07 10:20:49;;;;;;;1.47;0.67;;;11.10;99.90;;;;;;4932521;29;20509;-76
2022/04/07 10:23:25;;;;;;;2.03;0.83;;;11.10;99.90;;;;;;4919785;29;20423;-77
2022/04/07 10:25:52;;;;;;;1.20;0.60;;;11.10;99.90;;;;;;4937257;29;20457;-76
2022/04/07 10:28:22;;;;;;;1.70;1.27;;;11.10;99.90;;;;;;4941078;29;20425;-77
2022/04/07 10:30:49;;;;;;;0.70;0.50;;;11.10;99.90;;;;;;4930804;29;20438;-77
2022/04/07 10:33:33;;;;;;;1.70;0.80;;;11.10;99.90;;;;;;4938737;29;20498;-77
2022/04/07 10:35:59;;;;;;;0.77;0.77;;;11.10;99.90;;;;;;4940174;29;20491;-76
2022/04/07 10:38:40;;;;;;;1.60;0.87;;;11.10;99.90;;;;;;4910198;29;20505;-76
2022/04/07 10:41:09;;;;;;;1.63;0.90;;;11.10;99.90;;;;;;4962943;28;20547;-76
2022/04/07 10:43:38;;;;;;;1.10;0.80;;;11.10;99.90;;;;;;4931874;29;20439;-76
2022/04/07 10:46:09;;;;;;;3.33;1.40;;;11.10;99.90;;;;;;4932731;29;20459;-76
2022/04/07 10:49:01;;;;;;;1.53;0.93;;;11.10;99.90;;;;;;4933465;29;20450;-76
2022/04/07 10:51:43;;;;;;;1.40;0.73;;;11.10;99.90;;;;;;4935671;29;20523;-76
2022/04/07 10:54:12;;;;;;;2.43;0.90;;;11.10;99.90;;;;;;4937749;29;20456;-76
2022/04/07 10:56:49;;;;;;;1.73;0.90;;;11.10;99.90;;;;;;4943393;29;20541;-76
2022/04/07 10:59:21;;;;;;;1.73;0.80;;;11.20;99.90;;;;;;4950153;29;20441;-76
2022/04/07 11:01:57;;;;;;;1.17;0.70;;;11.20;99.90;;;;;;4934916;29;20435;-76
2022/04/07 11:04:23;;;;;;;2.07;0.80;;;11.20;99.90;;;;;;4942571;29;20443;-76
2022/04/07 11:07:07;;;;;;;1.63;0.60;;;11.20;99.90;;;;;;4944707;23;20463;-74
2022/04/07 11:09:57;;;;;;;0.70;0.60;;;11.20;99.90;;;;;;4930938;29;20482;-74
2022/04/07 11:12:37;;;;;;;1.03;0.70;;;11.20;99.90;;;;;;4939852;29;20422;-75
2022/04/07 11:15:03;;;;;;;1.17;0.93;;;11.20;99.90;;;;;;4917280;29;20927;-75
2022/04/07 11:17:47;;;;;;;1.87;1.07;;;11.30;99.90;;;;;;4933639;29;20998;-75
2022/04/07 11:20:31;;;;;;;0.90;0.70;;;11.30;99.90;;;;;;4926988;29;20480;-75
2022/04/07 11:23:07;;;;;;;1.00;0.63;;;11.30;99.90;;;;;;4930452;29;20462;-75
2022/04/07 11:25:43;;;;;;;1.43;0.83;;;11.30;99.90;;;;;;4916860;29;20450;-75
2022/04/07 11:28:22;;;;;;;1.20;0.70;;;11.40;99.90;;;;;;4933335;29;20449;-75
2022/04/07 11:30:52;;;;;;;1.83;0.90;;;11.40;99.90;;;;;;4932404;29;20958;-75
2022/04/07 11:35:58;;;;;;;2.07;0.80;;;11.40;99.90;;;;;;4934380;29;20489;-76
2022/04/07 11:38:36;;;;;;;1.40;0.90;;;11.40;99.90;;;;;;4931430;29;20884;-74
2022/04/07 11:41:10;;;;;;;0.93;0.63;;;11.50;99.90;;;;;;4911891;29;20967;-75
2022/04/07 11:43:48;;;;;;;0.97;0.73;;;11.50;99.90;;;;;;4932972;29;20445;-75
2022/04/07 11:46:23;;;;;;;0.80;0.60;;;11.50;99.90;;;;;;4933646;29;20456;-74
2022/04/07 11:48:50;;;;;;;2.43;0.97;;;11.60;99.90;;;;;;4917028;29;20420;-73
2022/04/07 11:51:19;;;;;;;1.00;0.80;;;11.60;99.90;;;;;;4950170;29;20437;-75
2022/04/07 11:53:54;;;;;;;1.20;0.80;;;11.60;99.90;;;;;;4933945;29;20476;-74
2022/04/07 11:56:31;;;;;;;0.90;0.70;;;11.70;99.90;;;;;;4938440;29;20448;-74
2022/04/07 11:59:09;;;;;;;1.33;0.87;;;11.70;99.90;;;;;;4953155;29;20510;-75
2022/04/07 12:01:37;;;;;;;2.30;0.90;;;11.70;99.90;;;;;;4913133;29;20470;-74
2022/04/07 12:04:09;;;;;;;2.50;0.90;;;11.70;99.90;;;;;;4937339;29;20436;-74
2022/04/07 12:06:40;;;;;;;2.47;0.90;;;11.70;99.90;;;;;;4937461;29;20824;-74
2022/04/07 12:09:08;;;;;;;1.30;0.80;;;11.80;99.90;;;;;;4936369;29;20467;-74
2022/04/07 12:11:38;;;;;;;1.70;0.80;;;11.80;99.90;;;;;;4921074;29;20441;-76
2022/04/07 12:14:08;;;;;;;4.00;0.83;;;11.80;99.90;;;;;;4931841;29;20433;-75
2022/04/07 12:16:42;;;;;;;1.53;0.80;;;11.80;99.90;;;;;;4938259;29;20484;-74
2022/04/07 12:19:13;;;;;;;2.10;1.10;;;11.90;99.90;;;;;;4936480;29;20449;-74
2022/04/07 12:21:53;;;;;;;1.47;0.90;;;11.90;99.90;;;;;;4934712;29;20544;-74
2022/04/07 12:24:28;;;;;;;1.20;1.00;;;11.90;99.90;;;;;;4918436;29;20821;-74
2022/04/07 12:26:59;;;;;;;3.50;1.23;;;11.90;99.90;;;;;;4926019;29;20459;-74
2022/04/07 12:29:34;;;;;;;2.50;1.07;;;11.90;99.90;;;;;;4920931;29;20429;-74
2022/04/07 12:32:01;;;;;;;1.30;0.90;;;12.00;99.90;;;;;;4935451;29;20465;-74
2022/04/07 12:34:30;;;;;;;3.23;0.90;;;12.00;99.90;;;;;;4937878;29;20426;-75
2022/04/07 12:37:02;;;;;;;3.13;1.07;;;12.00;99.90;;;;;;4936979;29;20548;-75
2022/04/07 12:39:32;;;;;;;2.50;1.00;;;12.00;99.90;;;;;;4937423;29;20506;-75
2022/04/07 12:42:10;;;;;;;2.00;1.30;;;12.00;99.90;;;;;;4931362;29;20458;-75
2022/04/07 12:44:43;;;;;;;2.00;0.93;;;12.00;99.90;;;;;;4930199;29;20786;-75
2022/04/07 12:47:25;;;;;;;2.67;1.37;;;12.00;99.90;;;;;;4938497;29;20451;-75
2022/04/07 12:50:03;;;;;;;2.27;1.20;;;12.00;99.90;;;;;;4920001;29;20971;-74
2022/04/07 12:52:40;;;;;;;2.20;1.00;;;12.00;99.90;;;;;;4936864;29;20432;-74
2022/04/07 12:55:15;;;;;;;3.67;1.50;;;12.10;99.90;;;;;;4937883;29;21146;-74
2022/04/07 12:57:45;;;;;;;3.97;1.20;;;12.10;99.90;;;;;;4919261;29;20465;-73
2022/04/07 13:00:18;;;;;;;4.53;1.50;;;12.10;99.90;;;;;;4917687;29;20551;-75
2022/04/07 13:02:47;;;;;;;3.33;1.40;;;12.10;99.90;;;;;;4925442;29;20439;-71
2022/04/07 13:05:24;;;;;;;8.50;1.67;;;12.10;99.90;;;;;;4931582;29;20490;-74